sensor_id;sensor_type;location;lat;lon;timestamp;temperature;humidity
20815;DHT22;10568;48.176;16.316;2023-12-29T00:00:31;3.40;99.90
20815;DHT22;10568;48.176;16.316;2023-12-29T00:02:58;3.40;99.90
20815;DHT22;10568;48.176;16.316;2023-12-29T00:05:25;3.40;99.90
20815;DHT22;10568;48.176;16.316;2023-12-29T00:07:53;3.50;99.90
20815;DHT22;10568;48.176;16.316;2023-12-29T00:10:21;3.50;99.90
20815;DHT22;10568;48.176;16.316;2023-12-29T00:12:48;3.50;99.90
20815;DHT22;10568;48.176;16.316;2023-12-29T00:15:18;3.50;99.90
20815;DHT22;10568;48.176;16.316;2023-12-29T00:17:45;3.50;99.90
20815;DHT22;10568;48.176;16.316;2023-12-29T00:20:14;3.50;99.90
20815;DHT22;10568;48.176;16.316;2023-12-29T00:23:00;3.50;99.90
20815;DHT22;10568;48.176;16.316;2023-12-29T00:25:27;3.50;99.90
20815;DHT22;10568;48.176;16.316;2023-12-29T00:27:54;3.50;99.90
20815;DHT22;10568;48.176;16.316;2023-12-29T00:30:21;3.50;99.90
20815;DHT22;10568;48.176;16.316;2023-12-29T00:32:48;3.60;99.90
20815;DHT22;10568;48.176;16.316;2023-12-29T00:35:15;3.60;99.90
20815;DHT22;10568;48.176;16.316;2023-12-29T00:37:42;3.60;99.90
20815;DHT22;10568;48.176;16.316;2023-12-29T00:40:09;3.70;99.90
20815;DHT22;10568;48.176;16.316;2023-12-29T00:42:38;3.60;99.90
20815;DHT22;10568;48.176;16.316;2023-12-29T00:45:06;3.60;99.90
20815;DHT22;10568;48.176;16.316;2023-12-29T00:47:33;3.70;99.90
20815;DHT22;10568;48.176;16.316;2023-12-29T00:50:01;3.60;99.90
20815;DHT22;10568;48.176;16.316;2023-12-29T00:52:28;3.70;99.90
20815;DHT22;10568;48.176;16.316;2023-12-29T00:54:55;3.70;99.90
20815;DHT22;10568;48.176;16.316;2023-12-29T00:57:22;3.70;99.90
20815;DHT22;10568;48.176;16.316;2023-12-29T00:59:49;3.70;99.90
20815;DHT22;10568;48.176;16.316;2023-12-29T01:02:17;3.70;99.90
20815;DHT22;10568;48.176;16.316;2023-12-29T01:04:44;3.80;99.90
20815;DHT22;10568;48.176;16.316;2023-12-29T01:07:11;3.90;99.90
20815;DHT22;10568;48.176;16.316;2023-12-29T01:09:39;3.80;99.90
20815;DHT22;10568;48.176;16.316;2023-12-29T01:12:07;3.90;99.90
20815;DHT22;10568;48.176;16.316;2023-12-29T01:14:35;3.90;99.90
20815;DHT22;10568;48.176;16.316;2023-12-29T01:17:02;3.90;99.90
20815;DHT22;10568;48.176;16.316;2023-12-29T01:19:30;3.90;99.90
20815;DHT22;10568;48.176;16.316;2023-12-29T01:21:57;3.90;99.90
20815;DHT22;10568;48.176;16.316;2023-12-29T01:24:24;3.90;99.90
20815;DHT22;10568;48.176;16.316;2023-12-29T01:27:01;4.00;99.90
20815;DHT22;10568;48.176;16.316;2023-12-29T01:29:31;4.00;99.90
20815;DHT22;10568;48.176;16.316;2023-12-29T01:31:58;3.90;99.90
20815;DHT22;10568;48.176;16.316;2023-12-29T01:34:25;4.00;99.90
20815;DHT22;10568;48.176;16.316;2023-12-29T01:37:02;3.90;99.90
20815;DHT22;10568;48.176;16.316;2023-12-29T01:39:33;3.90;99.90
20815;DHT22;10568;48.176;16.316;2023-12-29T01:42:02;4.00;99.90
20815;DHT22;10568;48.176;16.316;2023-12-29T01:44:29;4.00;99.90
20815;DHT22;10568;48.176;16.316;2023-12-29T01:46:59;3.90;99.90
20815;DHT22;10568;48.176;16.316;2023-12-29T01:49:28;3.80;99.90
20815;DHT22;10568;48.176;16.316;2023-12-29T01:51:58;3.90;99.90
20815;DHT22;10568;48.176;16.316;2023-12-29T01:54:28;3.80;99.90
20815;DHT22;10568;48.176;16.316;2023-12-29T01:56:57;3.90;99.90
20815;DHT22;10568;48.176;16.316;2023-12-29T01:59:27;3.90;99.90
20815;DHT22;10568;48.176;16.316;2023-12-29T02:01:55;3.90;99.90
20815;DHT22;10568;48.176;16.316;2023-12-29T02:04:27;3.90;99.90
20815;DHT22;10568;48.176;16.316;2023-12-29T02:06:55;3.80;99.90
20815;DHT22;10568;48.176;16.316;2023-12-29T02:09:25;3.80;99.90
20815;DHT22;10568;48.176;16.316;2023-12-29T02:11:52;3.80;99.90
20815;DHT22;10568;48.176;16.316;2023-12-29T02:14:19;3.80;99.90
20815;DHT22;10568;48.176;16.316;2023-12-29T02:17:15;3.80;99.90
20815;DHT22;10568;48.176;16.316;2023-12-29T02:19:47;3.80;99.90
20815;DHT22;10568;48.176;16.316;2023-12-29T02:22:17;3.80;99.90
20815;DHT22;10568;48.176;16.316;2023-12-29T02:24:46;3.80;99.90
20815;DHT22;10568;48.176;16.316;2023-12-29T02:30:30;3.70;99.90
20815;DHT22;10568;48.176;16.316;2023-12-29T02:33:05;3.70;99.90
20815;DHT22;10568;48.176;16.316;2023-12-29T02:35:37;3.70;99.90
20815;DHT22;10568;48.176;16.316;2023-12-29T02:38:06;3.70;99.90
20815;DHT22;10568;48.176;16.316;2023-12-29T02:40:33;3.80;99.90
20815;DHT22;10568;48.176;16.316;2023-12-29T02:43:00;3.80;99.90
20815;DHT22;10568;48.176;16.316;2023-12-29T02:45:28;3.80;99.90
20815;DHT22;10568;48.176;16.316;2023-12-29T02:47:55;3.80;99.90
20815;DHT22;10568;48.176;16.316;2023-12-29T02:50:23;3.80;99.90
20815;DHT22;10568;48.176;16.316;2023-12-29T02:52:50;3.80;99.90
20815;DHT22;10568;48.176;16.316;2023-12-29T02:55:18;3.80;99.90
20815;DHT22;10568;48.176;16.316;2023-12-29T02:57:45;3.80;99.90
20815;DHT22;10568;48.176;16.316;2023-12-29T03:00:13;3.80;99.90
20815;DHT22;10568;48.176;16.316;2023-12-29T03:02:40;3.80;99.90
20815;DHT22;10568;48.176;16.316;2023-12-29T03:05:07;3.80;99.90
20815;DHT22;10568;48.176;16.316;2023-12-29T03:07:35;3.80;99.90
20815;DHT22;10568;48.176;16.316;2023-12-29T03:10:02;3.80;99.90
20815;DHT22;10568;48.176;16.316;2023-12-29T03:12:29;3.80;99.90
20815;DHT22;10568;48.176;16.316;2023-12-29T03:14:57;3.80;99.90
20815;DHT22;10568;48.176;16.316;2023-12-29T03:17:26;3.80;99.90
20815;DHT22;10568;48.176;16.316;2023-12-29T03:19:53;3.80;99.90
20815;DHT22;10568;48.176;16.316;2023-12-29T03:22:21;3.70;99.90
20815;DHT22;10568;48.176;16.316;2023-12-29T03:24:48;3.80;99.90
20815;DHT22;10568;48.176;16.316;2023-12-29T03:27:16;3.70;99.90
20815;DHT22;10568;48.176;16.316;2023-12-29T03:29:43;3.70;99.90
20815;DHT22;10568;48.176;16.316;2023-12-29T03:32:11;3.80;99.90
20815;DHT22;10568;48.176;16.316;2023-12-29T03:34:38;3.80;99.90
20815;DHT22;10568;48.176;16.316;2023-12-29T03:37:05;3.80;99.90
20815;DHT22;10568;48.176;16.316;2023-12-29T03:39:33;3.80;99.90
20815;DHT22;10568;48.176;16.316;2023-12-29T03:42:04;3.80;99.90
20815;DHT22;10568;48.176;16.316;2023-12-29T03:44:31;3.90;99.90
20815;DHT22;10568;48.176;16.316;2023-12-29T03:46:58;3.90;99.90
20815;DHT22;10568;48.176;16.316;2023-12-29T03:49:25;4.00;99.90
20815;DHT22;10568;48.176;16.316;2023-12-29T03:51:53;4.00;99.90
20815;DHT22;10568;48.176;16.316;2023-12-29T03:54:20;4.10;99.90
20815;DHT22;10568;48.176;16.316;2023-12-29T03:56:48;4.10;99.90
20815;DHT22;10568;48.176;16.316;2023-12-29T03:59:15;4.10;99.90
20815;DHT22;10568;48.176;16.316;2023-12-29T04:01:42;4.20;99.90
20815;DHT22;10568;48.176;16.316;2023-12-29T04:04:10;4.20;99.90
20815;DHT22;10568;48.176;16.316;2023-12-29T04:06:38;4.20;99.90
20815;DHT22;10568;48.176;16.316;2023-12-29T04:09:05;4.30;99.90
20815;DHT22;10568;48.176;16.316;2023-12-29T04:11:33;4.30;99.90
20815;DHT22;10568;48.176;16.316;2023-12-29T04:14:01;4.40;99.90
20815;DHT22;10568;48.176;16.316;2023-12-29T04:16:28;4.40;99.90
20815;DHT22;10568;48.176;16.316;2023-12-29T04:18:55;4.40;99.90
20815;DHT22;10568;48.176;16.316;2023-12-29T04:21:22;4.40;99.90
20815;DHT22;10568;48.176;16.316;2023-12-29T04:23:49;4.40;99.90
20815;DHT22;10568;48.176;16.316;2023-12-29T04:26:16;4.50;99.90
20815;DHT22;10568;48.176;16.316;2023-12-29T04:28:44;4.50;99.90
20815;DHT22;10568;48.176;16.316;2023-12-29T04:31:11;4.50;99.90
20815;DHT22;10568;48.176;16.316;2023-12-29T04:33:38;4.50;99.90
20815;DHT22;10568;48.176;16.316;2023-12-29T04:36:05;4.50;99.90
20815;DHT22;10568;48.176;16.316;2023-12-29T04:38:33;4.60;99.90
20815;DHT22;10568;48.176;16.316;2023-12-29T04:41:01;4.80;99.90
20815;DHT22;10568;48.176;16.316;2023-12-29T04:43:28;4.90;99.90
20815;DHT22;10568;48.176;16.316;2023-12-29T04:45:55;4.90;99.90
20815;DHT22;10568;48.176;16.316;2023-12-29T04:48:24;5.00;99.90
20815;DHT22;10568;48.176;16.316;2023-12-29T04:50:51;5.00;99.90
20815;DHT22;10568;48.176;16.316;2023-12-29T04:53:18;5.10;99.90
20815;DHT22;10568;48.176;16.316;2023-12-29T04:55:46;5.20;99.90
20815;DHT22;10568;48.176;16.316;2023-12-29T04:58:13;5.20;99.90
20815;DHT22;10568;48.176;16.316;2023-12-29T05:00:40;5.20;99.90
20815;DHT22;10568;48.176;16.316;2023-12-29T05:03:07;5.20;99.90
20815;DHT22;10568;48.176;16.316;2023-12-29T05:05:34;5.20;99.90
20815;DHT22;10568;48.176;16.316;2023-12-29T05:08:01;5.20;99.90
20815;DHT22;10568;48.176;16.316;2023-12-29T05:10:29;5.20;99.90
20815;DHT22;10568;48.176;16.316;2023-12-29T05:12:56;5.20;99.90
20815;DHT22;10568;48.176;16.316;2023-12-29T05:15:24;5.30;99.90
20815;DHT22;10568;48.176;16.316;2023-12-29T05:17:51;5.30;99.90
20815;DHT22;10568;48.176;16.316;2023-12-29T05:20:19;5.30;99.90
20815;DHT22;10568;48.176;16.316;2023-12-29T05:22:46;5.40;99.90
20815;DHT22;10568;48.176;16.316;2023-12-29T05:25:14;5.40;99.90
20815;DHT22;10568;48.176;16.316;2023-12-29T05:27:41;5.40;99.90
20815;DHT22;10568;48.176;16.316;2023-12-29T05:30:08;5.40;99.90
20815;DHT22;10568;48.176;16.316;2023-12-29T05:32:36;5.40;99.90
20815;DHT22;10568;48.176;16.316;2023-12-29T05:35:04;5.50;99.90
20815;DHT22;10568;48.176;16.316;2023-12-29T05:37:31;5.80;99.90
20815;DHT22;10568;48.176;16.316;2023-12-29T05:39:58;5.80;99.90
20815;DHT22;10568;48.176;16.316;2023-12-29T05:42:25;5.80;99.90
20815;DHT22;10568;48.176;16.316;2023-12-29T05:44:52;5.80;99.90
20815;DHT22;10568;48.176;16.316;2023-12-29T05:47:19;5.80;99.90
20815;DHT22;10568;48.176;16.316;2023-12-29T05:49:46;5.80;99.90
20815;DHT22;10568;48.176;16.316;2023-12-29T05:52:14;5.70;99.90
20815;DHT22;10568;48.176;16.316;2023-12-29T05:54:42;5.60;99.90
20815;DHT22;10568;48.176;16.316;2023-12-29T05:57:09;5.50;99.90
20815;DHT22;10568;48.176;16.316;2023-12-29T05:59:36;5.40;99.90
20815;DHT22;10568;48.176;16.316;2023-12-29T06:02:03;5.30;99.90
20815;DHT22;10568;48.176;16.316;2023-12-29T06:04:30;5.20;99.90
20815;DHT22;10568;48.176;16.316;2023-12-29T06:06:58;5.10;99.90
20815;DHT22;10568;48.176;16.316;2023-12-29T06:09:25;5.00;99.90
20815;DHT22;10568;48.176;16.316;2023-12-29T06:11:52;4.90;99.90
20815;DHT22;10568;48.176;16.316;2023-12-29T06:14:20;4.80;99.90
20815;DHT22;10568;48.176;16.316;2023-12-29T06:16:47;4.60;99.90
20815;DHT22;10568;48.176;16.316;2023-12-29T06:19:14;4.50;99.90
20815;DHT22;10568;48.176;16.316;2023-12-29T06:21:42;4.40;99.90
20815;DHT22;10568;48.176;16.316;2023-12-29T06:24:12;4.30;99.90
20815;DHT22;10568;48.176;16.316;2023-12-29T06:26:39;4.20;99.90
20815;DHT22;10568;48.176;16.316;2023-12-29T06:29:10;4.10;99.90
20815;DHT22;10568;48.176;16.316;2023-12-29T06:31:42;4.00;99.90
20815;DHT22;10568;48.176;16.316;2023-12-29T06:34:10;3.90;99.90
20815;DHT22;10568;48.176;16.316;2023-12-29T06:36:37;3.90;99.90
20815;DHT22;10568;48.176;16.316;2023-12-29T06:39:05;3.80;99.90
20815;DHT22;10568;48.176;16.316;2023-12-29T06:41:33;3.80;99.90
20815;DHT22;10568;48.176;16.316;2023-12-29T06:44:00;3.70;99.90
20815;DHT22;10568;48.176;16.316;2023-12-29T06:46:27;3.70;99.90
20815;DHT22;10568;48.176;16.316;2023-12-29T06:48:54;3.70;99.90
20815;DHT22;10568;48.176;16.316;2023-12-29T06:51:22;3.60;99.90
20815;DHT22;10568;48.176;16.316;2023-12-29T06:53:50;3.50;99.90
20815;DHT22;10568;48.176;16.316;2023-12-29T06:56:18;3.50;99.90
20815;DHT22;10568;48.176;16.316;2023-12-29T06:58:45;3.50;99.90
20815;DHT22;10568;48.176;16.316;2023-12-29T07:01:13;3.40;99.90
20815;DHT22;10568;48.176;16.316;2023-12-29T07:03:40;3.40;99.90
20815;DHT22;10568;48.176;16.316;2023-12-29T07:06:09;3.30;99.90
20815;DHT22;10568;48.176;16.316;2023-12-29T07:08:37;3.30;99.90
20815;DHT22;10568;48.176;16.316;2023-12-29T07:11:04;3.30;99.90
20815;DHT22;10568;48.176;16.316;2023-12-29T07:13:37;3.30;99.90
20815;DHT22;10568;48.176;16.316;2023-12-29T07:16:04;3.30;99.90
20815;DHT22;10568;48.176;16.316;2023-12-29T07:18:32;3.30;99.90
20815;DHT22;10568;48.176;16.316;2023-12-29T07:20:59;3.30;99.90
20815;DHT22;10568;48.176;16.316;2023-12-29T07:23:26;3.30;99.90
20815;DHT22;10568;48.176;16.316;2023-12-29T07:25:53;3.30;99.90
20815;DHT22;10568;48.176;16.316;2023-12-29T07:28:21;3.30;99.90
20815;DHT22;10568;48.176;16.316;2023-12-29T07:30:48;3.30;99.90
20815;DHT22;10568;48.176;16.316;2023-12-29T07:33:15;3.30;99.90
20815;DHT22;10568;48.176;16.316;2023-12-29T07:35:43;3.30;99.90
20815;DHT22;10568;48.176;16.316;2023-12-29T07:38:11;3.30;99.90
20815;DHT22;10568;48.176;16.316;2023-12-29T07:40:38;3.30;99.90
20815;DHT22;10568;48.176;16.316;2023-12-29T07:43:05;3.30;99.90
20815;DHT22;10568;48.176;16.316;2023-12-29T07:45:34;3.30;99.90
20815;DHT22;10568;48.176;16.316;2023-12-29T07:48:02;3.40;99.90
20815;DHT22;10568;48.176;16.316;2023-12-29T07:50:32;3.50;99.90
20815;DHT22;10568;48.176;16.316;2023-12-29T07:53:00;3.70;99.90
20815;DHT22;10568;48.176;16.316;2023-12-29T07:55:30;3.90;99.90
20815;DHT22;10568;48.176;16.316;2023-12-29T07:57:57;4.10;99.90
20815;DHT22;10568;48.176;16.316;2023-12-29T08:00:25;4.20;99.90
20815;DHT22;10568;48.176;16.316;2023-12-29T08:02:53;4.40;99.90
20815;DHT22;10568;48.176;16.316;2023-12-29T08:05:20;4.60;99.90
20815;DHT22;10568;48.176;16.316;2023-12-29T08:07:48;4.80;99.90
20815;DHT22;10568;48.176;16.316;2023-12-29T08:10:15;4.90;99.90
20815;DHT22;10568;48.176;16.316;2023-12-29T08:12:42;5.10;99.90
20815;DHT22;10568;48.176;16.316;2023-12-29T08:15:09;5.20;99.90
20815;DHT22;10568;48.176;16.316;2023-12-29T08:17:36;5.30;99.90
20815;DHT22;10568;48.176;16.316;2023-12-29T08:20:06;5.40;99.90
20815;DHT22;10568;48.176;16.316;2023-12-29T08:22:33;5.40;99.90
20815;DHT22;10568;48.176;16.316;2023-12-29T08:25:01;5.40;99.90
20815;DHT22;10568;48.176;16.316;2023-12-29T08:27:28;5.50;99.90
20815;DHT22;10568;48.176;16.316;2023-12-29T08:29:55;5.50;99.90
20815;DHT22;10568;48.176;16.316;2023-12-29T08:32:22;5.60;99.90
20815;DHT22;10568;48.176;16.316;2023-12-29T08:34:50;5.80;99.90
20815;DHT22;10568;48.176;16.316;2023-12-29T08:37:17;5.90;99.90
20815;DHT22;10568;48.176;16.316;2023-12-29T08:39:47;6.00;99.90
20815;DHT22;10568;48.176;16.316;2023-12-29T08:42:16;6.20;99.90
20815;DHT22;10568;48.176;16.316;2023-12-29T08:44:43;6.30;99.90
20815;DHT22;10568;48.176;16.316;2023-12-29T08:47:10;6.40;99.90
20815;DHT22;10568;48.176;16.316;2023-12-29T08:49:38;6.50;99.90
20815;DHT22;10568;48.176;16.316;2023-12-29T08:52:05;6.50;99.90
20815;DHT22;10568;48.176;16.316;2023-12-29T08:54:33;6.50;99.90
20815;DHT22;10568;48.176;16.316;2023-12-29T08:57:00;6.60;99.90
20815;DHT22;10568;48.176;16.316;2023-12-29T08:59:27;6.60;99.90
20815;DHT22;10568;48.176;16.316;2023-12-29T09:01:55;6.70;99.90
20815;DHT22;10568;48.176;16.316;2023-12-29T09:04:23;6.80;99.90
20815;DHT22;10568;48.176;16.316;2023-12-29T09:06:50;6.80;99.90
20815;DHT22;10568;48.176;16.316;2023-12-29T09:09:18;6.90;99.90
20815;DHT22;10568;48.176;16.316;2023-12-29T09:11:45;7.00;99.90
20815;DHT22;10568;48.176;16.316;2023-12-29T09:14:14;7.00;99.90
20815;DHT22;10568;48.176;16.316;2023-12-29T09:16:41;7.10;99.90
20815;DHT22;10568;48.176;16.316;2023-12-29T09:19:10;7.10;99.90
20815;DHT22;10568;48.176;16.316;2023-12-29T09:21:40;7.30;99.90
20815;DHT22;10568;48.176;16.316;2023-12-29T09:24:07;7.40;99.90
20815;DHT22;10568;48.176;16.316;2023-12-29T09:26:35;7.50;99.90
20815;DHT22;10568;48.176;16.316;2023-12-29T09:29:02;7.60;99.90
20815;DHT22;10568;48.176;16.316;2023-12-29T09:31:29;7.60;99.90
20815;DHT22;10568;48.176;16.316;2023-12-29T09:33:56;7.70;99.90
20815;DHT22;10568;48.176;16.316;2023-12-29T09:36:24;7.80;99.90
20815;DHT22;10568;48.176;16.316;2023-12-29T09:38:51;7.90;99.90
20815;DHT22;10568;48.176;16.316;2023-12-29T09:41:20;7.90;99.90
20815;DHT22;10568;48.176;16.316;2023-12-29T09:43:51;8.00;99.90
20815;DHT22;10568;48.176;16.316;2023-12-29T09:46:19;8.20;99.90
20815;DHT22;10568;48.176;16.316;2023-12-29T09:48:52;8.20;99.90
20815;DHT22;10568;48.176;16.316;2023-12-29T09:51:22;8.30;99.90
20815;DHT22;10568;48.176;16.316;2023-12-29T09:53:51;8.40;99.90
20815;DHT22;10568;48.176;16.316;2023-12-29T09:56:19;8.50;99.90
20815;DHT22;10568;48.176;16.316;2023-12-29T09:58:47;8.60;99.90
20815;DHT22;10568;48.176;16.316;2023-12-29T10:01:17;8.70;99.90
20815;DHT22;10568;48.176;16.316;2023-12-29T10:03:47;8.80;99.90
20815;DHT22;10568;48.176;16.316;2023-12-29T10:06:20;8.90;99.90
20815;DHT22;10568;48.176;16.316;2023-12-29T10:08:51;9.00;99.90
20815;DHT22;10568;48.176;16.316;2023-12-29T10:11:20;9.10;99.90
20815;DHT22;10568;48.176;16.316;2023-12-29T10:13:50;9.20;99.90
20815;DHT22;10568;48.176;16.316;2023-12-29T10:16:32;9.30;99.90
20815;DHT22;10568;48.176;16.316;2023-12-29T10:19:33;9.40;99.90
20815;DHT22;10568;48.176;16.316;2023-12-29T10:22:26;9.50;99.90
20815;DHT22;10568;48.176;16.316;2023-12-29T10:24:57;9.50;99.90
20815;DHT22;10568;48.176;16.316;2023-12-29T10:27:26;9.50;99.90
20815;DHT22;10568;48.176;16.316;2023-12-29T10:29:53;9.40;99.90
20815;DHT22;10568;48.176;16.316;2023-12-29T10:32:26;9.40;99.90
20815;DHT22;10568;48.176;16.316;2023-12-29T10:35:09;9.50;99.90
20815;DHT22;10568;48.176;16.316;2023-12-29T10:37:38;9.70;99.90
20815;DHT22;10568;48.176;16.316;2023-12-29T10:40:05;10.00;99.90
20815;DHT22;10568;48.176;16.316;2023-12-29T10:42:33;10.10;99.90
20815;DHT22;10568;48.176;16.316;2023-12-29T10:45:08;10.20;99.90
20815;DHT22;10568;48.176;16.316;2023-12-29T10:47:37;10.20;99.90
20815;DHT22;10568;48.176;16.316;2023-12-29T10:50:05;10.30;99.90
20815;DHT22;10568;48.176;16.316;2023-12-29T10:52:32;10.50;99.90
20815;DHT22;10568;48.176;16.316;2023-12-29T10:55:05;10.80;99.90
20815;DHT22;10568;48.176;16.316;2023-12-29T10:57:33;11.20;99.90
20815;DHT22;10568;48.176;16.316;2023-12-29T11:00:00;11.70;99.90
20815;DHT22;10568;48.176;16.316;2023-12-29T11:02:28;12.00;99.90
20815;DHT22;10568;48.176;16.316;2023-12-29T11:07:35;12.50;99.90
20815;DHT22;10568;48.176;16.316;2023-12-29T11:10:06;13.00;99.90
20815;DHT22;10568;48.176;16.316;2023-12-29T11:12:36;13.20;99.90
20815;DHT22;10568;48.176;16.316;2023-12-29T11:15:06;13.40;99.90
20815;DHT22;10568;48.176;16.316;2023-12-29T11:17:35;13.50;99.90
20815;DHT22;10568;48.176;16.316;2023-12-29T11:20:04;13.60;99.90
20815;DHT22;10568;48.176;16.316;2023-12-29T11:22:32;13.80;99.90
20815;DHT22;10568;48.176;16.316;2023-12-29T11:25:00;13.90;99.90
20815;DHT22;10568;48.176;16.316;2023-12-29T11:27:29;14.00;99.90
20815;DHT22;10568;48.176;16.316;2023-12-29T11:30:03;14.20;99.90
20815;DHT22;10568;48.176;16.316;2023-12-29T11:35:16;14.60;99.90
20815;DHT22;10568;48.176;16.316;2023-12-29T11:37:51;14.70;99.90
20815;DHT22;10568;48.176;16.316;2023-12-29T11:43:03;15.00;99.90
20815;DHT22;10568;48.176;16.316;2023-12-29T11:45:34;15.00;99.90
20815;DHT22;10568;48.176;16.316;2023-12-29T11:48:03;15.10;99.90
20815;DHT22;10568;48.176;16.316;2023-12-29T11:50:38;15.10;99.90
20815;DHT22;10568;48.176;16.316;2023-12-29T11:53:08;15.20;99.90
20815;DHT22;10568;48.176;16.316;2023-12-29T11:55:39;15.20;99.90
20815;DHT22;10568;48.176;16.316;2023-12-29T11:58:26;15.20;99.90
20815;DHT22;10568;48.176;16.316;2023-12-29T12:00:57;15.10;99.90
20815;DHT22;10568;48.176;16.316;2023-12-29T12:03:25;15.00;99.90
20815;DHT22;10568;48.176;16.316;2023-12-29T12:05:55;15.00;99.90
20815;DHT22;10568;48.176;16.316;2023-12-29T12:10:59;15.00;99.90
20815;DHT22;10568;48.176;16.316;2023-12-29T12:19:43;14.80;99.90
20815;DHT22;10568;48.176;16.316;2023-12-29T12:22:11;14.70;99.90
20815;DHT22;10568;48.176;16.316;2023-12-29T12:24:38;14.70;99.90
20815;DHT22;10568;48.176;16.316;2023-12-29T12:27:10;14.70;99.90
20815;DHT22;10568;48.176;16.316;2023-12-29T12:29:37;14.70;99.90
20815;DHT22;10568;48.176;16.316;2023-12-29T12:32:05;14.70;99.90
20815;DHT22;10568;48.176;16.316;2023-12-29T12:34:37;14.60;99.90
20815;DHT22;10568;48.176;16.316;2023-12-29T12:37:07;14.60;99.90
20815;DHT22;10568;48.176;16.316;2023-12-29T12:39:41;14.60;99.90
20815;DHT22;10568;48.176;16.316;2023-12-29T12:42:08;14.60;99.90
20815;DHT22;10568;48.176;16.316;2023-12-29T12:44:40;14.50;99.90
20815;DHT22;10568;48.176;16.316;2023-12-29T12:47:12;14.50;99.90
20815;DHT22;10568;48.176;16.316;2023-12-29T12:49:45;14.40;99.90
20815;DHT22;10568;48.176;16.316;2023-12-29T12:52:12;14.40;99.90
20815;DHT22;10568;48.176;16.316;2023-12-29T12:54:39;14.30;99.90
20815;DHT22;10568;48.176;16.316;2023-12-29T12:57:07;14.30;99.90
20815;DHT22;10568;48.176;16.316;2023-12-29T12:59:35;14.30;99.90
20815;DHT22;10568;48.176;16.316;2023-12-29T13:02:03;14.30;99.90
20815;DHT22;10568;48.176;16.316;2023-12-29T13:04:33;14.20;99.90
20815;DHT22;10568;48.176;16.316;2023-12-29T13:07:00;14.20;99.90
20815;DHT22;10568;48.176;16.316;2023-12-29T13:09:28;14.20;99.90
20815;DHT22;10568;48.176;16.316;2023-12-29T13:12:10;14.10;99.90
20815;DHT22;10568;48.176;16.316;2023-12-29T13:14:37;14.10;99.90
20815;DHT22;10568;48.176;16.316;2023-12-29T13:17:12;14.00;99.90
20815;DHT22;10568;48.176;16.316;2023-12-29T13:19:41;14.00;99.90
20815;DHT22;10568;48.176;16.316;2023-12-29T13:22:11;14.00;99.90
20815;DHT22;10568;48.176;16.316;2023-12-29T13:24:45;13.80;99.90
20815;DHT22;10568;48.176;16.316;2023-12-29T13:27:13;13.80;99.90
20815;DHT22;10568;48.176;16.316;2023-12-29T13:29:42;13.70;99.90
20815;DHT22;10568;48.176;16.316;2023-12-29T13:32:21;13.60;99.90
20815;DHT22;10568;48.176;16.316;2023-12-29T13:40:38;13.30;99.90
20815;DHT22;10568;48.176;16.316;2023-12-29T13:43:08;13.20;99.90
20815;DHT22;10568;48.176;16.316;2023-12-29T13:45:39;13.10;99.90
20815;DHT22;10568;48.176;16.316;2023-12-29T13:48:11;13.00;99.90
20815;DHT22;10568;48.176;16.316;2023-12-29T13:50:39;13.00;99.90
20815;DHT22;10568;48.176;16.316;2023-12-29T13:53:08;12.90;99.90
20815;DHT22;10568;48.176;16.316;2023-12-29T13:55:36;12.80;99.90
20815;DHT22;10568;48.176;16.316;2023-12-29T13:58:09;12.80;99.90
20815;DHT22;10568;48.176;16.316;2023-12-29T14:00:38;12.70;99.90
20815;DHT22;10568;48.176;16.316;2023-12-29T14:03:23;12.60;99.90
20815;DHT22;10568;48.176;16.316;2023-12-29T14:06:03;12.50;99.90
20815;DHT22;10568;48.176;16.316;2023-12-29T14:08:39;12.40;99.90
20815;DHT22;10568;48.176;16.316;2023-12-29T14:11:08;12.30;99.90
20815;DHT22;10568;48.176;16.316;2023-12-29T14:13:47;12.20;99.90
20815;DHT22;10568;48.176;16.316;2023-12-29T14:16:17;12.10;99.90
20815;DHT22;10568;48.176;16.316;2023-12-29T14:18:55;12.00;99.90
20815;DHT22;10568;48.176;16.316;2023-12-29T14:21:32;11.90;99.90
20815;DHT22;10568;48.176;16.316;2023-12-29T14:24:13;11.90;99.90
20815;DHT22;10568;48.176;16.316;2023-12-29T14:26:54;11.90;99.90
20815;DHT22;10568;48.176;16.316;2023-12-29T14:29:23;11.90;99.90
20815;DHT22;10568;48.176;16.316;2023-12-29T14:31:52;11.90;99.90
20815;DHT22;10568;48.176;16.316;2023-12-29T14:34:20;11.90;99.90
20815;DHT22;10568;48.176;16.316;2023-12-29T14:36:47;11.80;99.90
20815;DHT22;10568;48.176;16.316;2023-12-29T14:39:14;11.90;99.90
20815;DHT22;10568;48.176;16.316;2023-12-29T14:41:44;11.80;99.90
20815;DHT22;10568;48.176;16.316;2023-12-29T14:44:13;11.80;99.90
20815;DHT22;10568;48.176;16.316;2023-12-29T14:46:40;12.00;99.90
20815;DHT22;10568;48.176;16.316;2023-12-29T14:49:08;11.90;99.90
20815;DHT22;10568;48.176;16.316;2023-12-29T14:51:37;12.00;99.90
20815;DHT22;10568;48.176;16.316;2023-12-29T14:54:05;11.90;99.90
20815;DHT22;10568;48.176;16.316;2023-12-29T14:56:32;12.00;99.90
20815;DHT22;10568;48.176;16.316;2023-12-29T14:58:59;11.90;99.90
20815;DHT22;10568;48.176;16.316;2023-12-29T15:01:27;11.80;99.90
20815;DHT22;10568;48.176;16.316;2023-12-29T15:03:54;11.80;99.90
20815;DHT22;10568;48.176;16.316;2023-12-29T15:06:22;11.80;99.90
20815;DHT22;10568;48.176;16.316;2023-12-29T15:08:52;11.90;99.90
20815;DHT22;10568;48.176;16.316;2023-12-29T15:11:19;11.90;99.90
20815;DHT22;10568;48.176;16.316;2023-12-29T15:13:49;11.90;99.90
20815;DHT22;10568;48.176;16.316;2023-12-29T15:16:16;11.90;99.90
20815;DHT22;10568;48.176;16.316;2023-12-29T15:18:44;12.00;99.90
20815;DHT22;10568;48.176;16.316;2023-12-29T15:21:11;12.00;99.90
20815;DHT22;10568;48.176;16.316;2023-12-29T15:23:38;12.10;99.90
20815;DHT22;10568;48.176;16.316;2023-12-29T15:26:05;12.10;99.90
20815;DHT22;10568;48.176;16.316;2023-12-29T15:28:33;12.20;99.90
20815;DHT22;10568;48.176;16.316;2023-12-29T15:31:00;12.10;99.90
20815;DHT22;10568;48.176;16.316;2023-12-29T15:33:28;12.10;99.90
20815;DHT22;10568;48.176;16.316;2023-12-29T15:35:55;12.10;99.90
20815;DHT22;10568;48.176;16.316;2023-12-29T15:38:23;12.20;99.90
20815;DHT22;10568;48.176;16.316;2023-12-29T15:40:50;12.20;99.90
20815;DHT22;10568;48.176;16.316;2023-12-29T15:43:18;12.10;99.90
20815;DHT22;10568;48.176;16.316;2023-12-29T15:45:45;12.10;99.90
20815;DHT22;10568;48.176;16.316;2023-12-29T15:48:12;12.00;99.90
20815;DHT22;10568;48.176;16.316;2023-12-29T15:50:40;11.90;99.90
20815;DHT22;10568;48.176;16.316;2023-12-29T15:53:07;11.80;99.90
20815;DHT22;10568;48.176;16.316;2023-12-29T15:55:34;11.80;99.90
20815;DHT22;10568;48.176;16.316;2023-12-29T15:58:01;11.70;99.90
20815;DHT22;10568;48.176;16.316;2023-12-29T16:00:31;11.60;99.90